Terminal Aerodrome Forecast
Issued by NWS Greer, SC

Home | Current Version | Previous Version | Text Only | Print | Product List | Glossary On
Versions: 1 2 3 4 5 6 7 8 9 10 11 12 13 14 15
848
FTUS42 KGSP 230540
TAFGSP
TAF
KGSP 230540Z 2306/2406 05007KT P6SM FEW070
     FM230900 05007KT P6SM SCT070
     FM231300 04010KT P6SM SKC
     FM232100 12005KT P6SM SCT060=

USA.gov is the U.S. government's official web portal to all federal, state and local government web resources and services.